sensor_id;sensor_type;location;lat;lon;timestamp;pressure;altitude;pressure_sealevel;temperature;humidity
65376;BME280;51976;47.332;9.404;2023-05-20T00:02:02;92668.72;;;8.70;80.58
65376;BME280;51976;47.332;9.404;2023-05-20T00:04:27;92666.50;;;8.77;80.89
65376;BME280;51976;47.332;9.404;2023-05-20T00:06:52;92661.38;;;8.80;80.63
65376;BME280;51976;47.332;9.404;2023-05-20T00:09:19;92661.72;;;8.74;80.95
65376;BME280;51976;47.332;9.404;2023-05-20T00:11:45;92646.25;;;8.40;81.87
65376;BME280;51976;47.332;9.404;2023-05-20T00:14:11;92665.78;;;8.56;82.00
65376;BME280;51976;47.332;9.404;2023-05-20T00:16:36;92646.78;;;8.37;82.26
65376;BME280;51976;47.332;9.404;2023-05-20T00:19:02;92652.34;;;8.61;82.18
65376;BME280;51976;47.332;9.404;2023-05-20T00:21:27;92672.78;;;8.52;82.82
65376;BME280;51976;47.332;9.404;2023-05-20T00:23:54;92672.56;;;8.38;83.64
65376;BME280;51976;47.332;9.404;2023-05-20T00:26:19;92673.09;;;8.45;83.51
65376;BME280;51976;47.332;9.404;2023-05-20T00:28:45;92651.81;;;8.54;83.01
65376;BME280;51976;47.332;9.404;2023-05-20T00:31:11;92664.41;;;8.74;82.00
65376;BME280;51976;47.332;9.404;2023-05-20T00:33:36;92651.16;;;8.88;81.43
65376;BME280;51976;47.332;9.404;2023-05-20T00:36:01;92660.78;;;8.99;80.89
65376;BME280;51976;47.332;9.404;2023-05-20T00:38:27;92666.41;;;9.02;80.95
65376;BME280;51976;47.332;9.404;2023-05-20T00:40:52;92666.38;;;9.07;80.70
65376;BME280;51976;47.332;9.404;2023-05-20T00:43:18;92648.69;;;9.01;80.21
65376;BME280;51976;47.332;9.404;2023-05-20T00:45:45;92667.38;;;9.22;80.08
65376;BME280;51976;47.332;9.404;2023-05-20T00:48:10;92673.00;;;9.25;79.83
65376;BME280;51976;47.332;9.404;2023-05-20T00:50:36;92665.19;;;9.29;79.56
65376;BME280;51976;47.332;9.404;2023-05-20T00:53:02;92665.22;;;9.24;79.56
65376;BME280;51976;47.332;9.404;2023-05-20T00:55:27;92669.00;;;9.23;79.80
65376;BME280;51976;47.332;9.404;2023-05-20T00:57:53;92664.41;;;9.23;79.78
65376;BME280;51976;47.332;9.404;2023-05-20T01:00:19;92658.22;;;9.23;79.84
65376;BME280;51976;47.332;9.404;2023-05-20T01:02:44;92655.81;;;9.21;79.87
65376;BME280;51976;47.332;9.404;2023-05-20T01:05:10;92646.66;;;9.22;79.82
65376;BME280;51976;47.332;9.404;2023-05-20T01:07:35;92650.88;;;9.33;79.63
65376;BME280;51976;47.332;9.404;2023-05-20T01:10:01;92660.97;;;9.12;79.91
65376;BME280;51976;47.332;9.404;2023-05-20T01:12:30;92645.47;;;8.94;80.02
65376;BME280;51976;47.332;9.404;2023-05-20T01:15:10;92636.34;;;8.95;79.53
65376;BME280;51976;47.332;9.404;2023-05-20T01:17:40;92647.53;;;9.12;79.34
65376;BME280;51976;47.332;9.404;2023-05-20T01:20:09;92644.84;;;9.12;79.11
65376;BME280;51976;47.332;9.404;2023-05-20T01:22:46;92620.22;;;8.95;79.09
65376;BME280;51976;47.332;9.404;2023-05-20T01:25:12;92644.31;;;9.05;79.47
65376;BME280;51976;47.332;9.404;2023-05-20T01:27:37;92634.88;;;9.13;79.52
65376;BME280;51976;47.332;9.404;2023-05-20T01:30:03;92632.16;;;9.18;79.25
65376;BME280;51976;47.332;9.404;2023-05-20T01:32:35;92633.75;;;9.24;79.13
65376;BME280;51976;47.332;9.404;2023-05-20T01:35:03;92634.06;;;9.18;79.26
65376;BME280;51976;47.332;9.404;2023-05-20T01:37:30;92582.31;;;8.92;79.50
65376;BME280;51976;47.332;9.404;2023-05-20T01:39:56;92614.16;;;9.19;79.32
65376;BME280;51976;47.332;9.404;2023-05-20T01:42:22;92597.66;;;8.86;79.92
65376;BME280;51976;47.332;9.404;2023-05-20T01:44:50;92629.41;;;8.84;80.54
65376;BME280;51976;47.332;9.404;2023-05-20T01:47:15;92623.88;;;9.09;79.56
65376;BME280;51976;47.332;9.404;2023-05-20T01:49:41;92625.69;;;9.24;79.15
65376;BME280;51976;47.332;9.404;2023-05-20T01:52:06;92617.94;;;9.12;79.08
65376;BME280;51976;47.332;9.404;2023-05-20T01:54:31;92637.06;;;9.06;79.75
65376;BME280;51976;47.332;9.404;2023-05-20T01:56:57;92599.28;;;8.87;79.86
65376;BME280;51976;47.332;9.404;2023-05-20T01:59:22;92628.59;;;8.83;81.10
65376;BME280;51976;47.332;9.404;2023-05-20T02:01:47;92624.88;;;8.74;81.18
65376;BME280;51976;47.332;9.404;2023-05-20T02:04:13;92625.13;;;8.78;81.60
65376;BME280;51976;47.332;9.404;2023-05-20T02:06:38;92625.34;;;8.92;80.68
65376;BME280;51976;47.332;9.404;2023-05-20T02:09:04;92617.22;;;9.02;80.07
65376;BME280;51976;47.332;9.404;2023-05-20T02:11:29;92599.69;;;9.04;79.55
65376;BME280;51976;47.332;9.404;2023-05-20T02:13:54;92603.53;;;8.98;79.78
65376;BME280;51976;47.332;9.404;2023-05-20T02:16:20;92620.38;;;9.09;79.84
65376;BME280;51976;47.332;9.404;2023-05-20T02:18:45;92616.56;;;9.20;79.70
65376;BME280;51976;47.332;9.404;2023-05-20T02:21:11;92615.44;;;9.26;79.54
65376;BME280;51976;47.332;9.404;2023-05-20T02:23:36;92611.44;;;9.24;79.70
65376;BME280;51976;47.332;9.404;2023-05-20T02:26:01;92606.59;;;9.21;79.54
65376;BME280;51976;47.332;9.404;2023-05-20T02:28:27;92615.72;;;9.25;79.84
65376;BME280;51976;47.332;9.404;2023-05-20T02:30:52;92616.97;;;8.98;80.85
65376;BME280;51976;47.332;9.404;2023-05-20T02:33:18;92601.13;;;8.92;81.14
65376;BME280;51976;47.332;9.404;2023-05-20T02:35:44;92606.53;;;8.87;81.25
65376;BME280;51976;47.332;9.404;2023-05-20T02:38:11;92599.00;;;8.89;81.01
65376;BME280;51976;47.332;9.404;2023-05-20T02:40:37;92611.09;;;8.91;81.30
65376;BME280;51976;47.332;9.404;2023-05-20T02:43:02;92613.75;;;8.96;81.24
65376;BME280;51976;47.332;9.404;2023-05-20T02:45:27;92595.41;;;9.03;80.65
65376;BME280;51976;47.332;9.404;2023-05-20T02:47:53;92589.22;;;9.03;80.12
65376;BME280;51976;47.332;9.404;2023-05-20T02:50:18;92596.97;;;9.14;80.35
65376;BME280;51976;47.332;9.404;2023-05-20T02:52:44;92593.44;;;9.19;80.06
65376;BME280;51976;47.332;9.404;2023-05-20T02:55:10;92587.50;;;9.22;79.86
65376;BME280;51976;47.332;9.404;2023-05-20T02:57:36;92584.44;;;9.00;80.49
65376;BME280;51976;47.332;9.404;2023-05-20T03:00:06;92539.72;;;8.70;80.65
65376;BME280;51976;47.332;9.404;2023-05-20T03:02:35;92592.69;;;9.08;80.49
65376;BME280;51976;47.332;9.404;2023-05-20T03:05:00;92583.13;;;8.92;81.04
65376;BME280;51976;47.332;9.404;2023-05-20T03:07:26;92557.44;;;8.71;81.29
65376;BME280;51976;47.332;9.404;2023-05-20T03:09:52;92583.91;;;8.98;81.00
65376;BME280;51976;47.332;9.404;2023-05-20T03:12:17;92586.22;;;9.09;80.95
65376;BME280;51976;47.332;9.404;2023-05-20T03:14:43;92576.50;;;9.19;80.51
65376;BME280;51976;47.332;9.404;2023-05-20T03:17:09;92580.72;;;9.30;79.90
65376;BME280;51976;47.332;9.404;2023-05-20T03:19:35;92583.59;;;9.38;79.60
65376;BME280;51976;47.332;9.404;2023-05-20T03:22:01;92560.22;;;9.34;79.45
65376;BME280;51976;47.332;9.404;2023-05-20T03:24:27;92571.75;;;9.39;79.39
65376;BME280;51976;47.332;9.404;2023-05-20T03:26:53;92564.78;;;9.38;79.52
65376;BME280;51976;47.332;9.404;2023-05-20T03:29:18;92556.13;;;9.41;79.07
65376;BME280;51976;47.332;9.404;2023-05-20T03:31:44;92545.13;;;9.38;79.04
65376;BME280;51976;47.332;9.404;2023-05-20T03:34:09;92574.94;;;9.46;79.10
65376;BME280;51976;47.332;9.404;2023-05-20T03:36:34;92568.47;;;9.47;79.20
65376;BME280;51976;47.332;9.404;2023-05-20T03:39:00;92557.78;;;9.37;79.38
65376;BME280;51976;47.332;9.404;2023-05-20T03:41:26;92571.44;;;9.46;79.36
65376;BME280;51976;47.332;9.404;2023-05-20T03:43:52;92566.59;;;9.48;79.29
65376;BME280;51976;47.332;9.404;2023-05-20T03:46:17;92571.97;;;9.48;79.42
65376;BME280;51976;47.332;9.404;2023-05-20T03:48:42;92567.16;;;9.45;79.35
65376;BME280;51976;47.332;9.404;2023-05-20T03:51:08;92575.16;;;9.55;79.13
65376;BME280;51976;47.332;9.404;2023-05-20T03:53:33;92567.13;;;9.50;79.08
65376;BME280;51976;47.332;9.404;2023-05-20T03:55:58;92583.81;;;9.47;79.21
65376;BME280;51976;47.332;9.404;2023-05-20T03:58:24;92584.09;;;9.45;79.57
65376;BME280;51976;47.332;9.404;2023-05-20T04:00:50;92579.00;;;9.44;79.62
65376;BME280;51976;47.332;9.404;2023-05-20T04:03:15;92584.06;;;9.50;79.51
65376;BME280;51976;47.332;9.404;2023-05-20T04:05:41;92577.88;;;9.50;79.63
65376;BME280;51976;47.332;9.404;2023-05-20T04:08:06;92577.34;;;9.48;80.02
65376;BME280;51976;47.332;9.404;2023-05-20T04:10:32;92549.81;;;9.27;80.05
65376;BME280;51976;47.332;9.404;2023-05-20T04:12:57;92539.09;;;9.22;80.10
65376;BME280;51976;47.332;9.404;2023-05-20T04:15:23;92566.91;;;9.41;80.13
65376;BME280;51976;47.332;9.404;2023-05-20T04:17:49;92579.47;;;9.51;80.01
65376;BME280;51976;47.332;9.404;2023-05-20T04:20:17;92570.56;;;9.56;79.77
65376;BME280;51976;47.332;9.404;2023-05-20T04:22:43;92565.22;;;9.50;79.72
65376;BME280;51976;47.332;9.404;2023-05-20T04:25:09;92574.28;;;9.60;79.59
65376;BME280;51976;47.332;9.404;2023-05-20T04:27:34;92571.03;;;9.63;79.64
65376;BME280;51976;47.332;9.404;2023-05-20T04:30:02;92566.47;;;9.58;79.62
65376;BME280;51976;47.332;9.404;2023-05-20T04:32:28;92572.34;;;9.65;79.39
65376;BME280;51976;47.332;9.404;2023-05-20T04:34:54;92560.13;;;9.49;79.89
65376;BME280;51976;47.332;9.404;2023-05-20T04:37:20;92568.78;;;9.41;80.33
65376;BME280;51976;47.332;9.404;2023-05-20T04:39:46;92573.56;;;9.49;80.42
65376;BME280;51976;47.332;9.404;2023-05-20T04:42:17;92560.69;;;9.46;80.48
65376;BME280;51976;47.332;9.404;2023-05-20T04:44:47;92534.75;;;9.26;80.64
65376;BME280;51976;47.332;9.404;2023-05-20T04:47:13;92558.03;;;9.41;80.78
65376;BME280;51976;47.332;9.404;2023-05-20T04:49:39;92560.44;;;9.42;80.30
65376;BME280;51976;47.332;9.404;2023-05-20T04:52:04;92565.81;;;9.42;80.61
65376;BME280;51976;47.332;9.404;2023-05-20T04:54:31;92576.41;;;9.63;79.92
65376;BME280;51976;47.332;9.404;2023-05-20T04:56:57;92562.16;;;9.62;79.49
65376;BME280;51976;47.332;9.404;2023-05-20T04:59:22;92568.09;;;9.59;79.73
65376;BME280;51976;47.332;9.404;2023-05-20T05:01:48;92570.03;;;9.54;79.85
65376;BME280;51976;47.332;9.404;2023-05-20T05:04:13;92577.44;;;9.67;79.66
65376;BME280;51976;47.332;9.404;2023-05-20T05:06:38;92568.03;;;9.64;79.61
65376;BME280;51976;47.332;9.404;2023-05-20T05:09:04;92562.91;;;9.68;79.59
65376;BME280;51976;47.332;9.404;2023-05-20T05:11:29;92557.28;;;9.64;79.53
65376;BME280;51976;47.332;9.404;2023-05-20T05:13:55;92555.63;;;9.68;79.30
65376;BME280;51976;47.332;9.404;2023-05-20T05:16:20;92566.72;;;9.91;78.96
65376;BME280;51976;47.332;9.404;2023-05-20T05:18:46;92564.06;;;9.85;78.47
65376;BME280;51976;47.332;9.404;2023-05-20T05:21:11;92560.94;;;9.78;78.61
65376;BME280;51976;47.332;9.404;2023-05-20T05:23:37;92556.59;;;9.82;78.77
65376;BME280;51976;47.332;9.404;2023-05-20T05:26:02;92558.25;;;9.78;78.71
65376;BME280;51976;47.332;9.404;2023-05-20T05:28:28;92550.28;;;9.63;78.87
65376;BME280;51976;47.332;9.404;2023-05-20T05:30:54;92555.16;;;9.61;78.67
65376;BME280;51976;47.332;9.404;2023-05-20T05:33:20;92549.25;;;9.59;78.88
65376;BME280;51976;47.332;9.404;2023-05-20T05:35:46;92553.50;;;9.65;78.68
65376;BME280;51976;47.332;9.404;2023-05-20T05:38:11;92554.34;;;9.90;78.23
65376;BME280;51976;47.332;9.404;2023-05-20T05:40:36;92552.59;;;10.04;77.42
65376;BME280;51976;47.332;9.404;2023-05-20T05:43:02;92553.91;;;10.06;77.13
65376;BME280;51976;47.332;9.404;2023-05-20T05:45:27;92537.09;;;9.91;76.88
65376;BME280;51976;47.332;9.404;2023-05-20T05:47:53;92558.50;;;10.06;77.07
65376;BME280;51976;47.332;9.404;2023-05-20T05:50:19;92555.16;;;10.14;76.70
65376;BME280;51976;47.332;9.404;2023-05-20T05:52:45;92550.28;;;10.21;76.34
65376;BME280;51976;47.332;9.404;2023-05-20T05:55:11;92548.91;;;10.24;76.47
65376;BME280;51976;47.332;9.404;2023-05-20T05:57:36;92538.13;;;10.24;75.99
65376;BME280;51976;47.332;9.404;2023-05-20T06:00:02;92542.53;;;10.38;75.57
65376;BME280;51976;47.332;9.404;2023-05-20T06:02:28;92536.22;;;10.24;75.54
65376;BME280;51976;47.332;9.404;2023-05-20T06:04:54;92518.16;;;10.01;76.09
65376;BME280;51976;47.332;9.404;2023-05-20T06:07:19;92522.03;;;9.90;75.93
65376;BME280;51976;47.332;9.404;2023-05-20T06:09:45;92533.97;;;9.83;76.66
65376;BME280;51976;47.332;9.404;2023-05-20T06:12:10;92549.66;;;10.00;76.74
65376;BME280;51976;47.332;9.404;2023-05-20T06:14:35;92533.59;;;9.90;76.77
65376;BME280;51976;47.332;9.404;2023-05-20T06:17:03;92545.31;;;10.04;76.22
65376;BME280;51976;47.332;9.404;2023-05-20T06:19:28;92527.31;;;10.00;76.04
65376;BME280;51976;47.332;9.404;2023-05-20T06:21:55;92547.50;;;10.02;76.13
65376;BME280;51976;47.332;9.404;2023-05-20T06:24:22;92551.06;;;10.22;75.96
65376;BME280;51976;47.332;9.404;2023-05-20T06:26:47;92546.63;;;10.36;75.30
65376;BME280;51976;47.332;9.404;2023-05-20T06:29:14;92546.19;;;10.47;75.06
65376;BME280;51976;47.332;9.404;2023-05-20T06:31:40;92539.38;;;10.55;74.89
65376;BME280;51976;47.332;9.404;2023-05-20T06:34:05;92536.91;;;10.59;74.87
65376;BME280;51976;47.332;9.404;2023-05-20T06:36:30;92542.00;;;10.60;74.77
65376;BME280;51976;47.332;9.404;2023-05-20T06:38:56;92540.84;;;10.66;74.63
65376;BME280;51976;47.332;9.404;2023-05-20T06:41:21;92541.41;;;10.63;74.76
65376;BME280;51976;47.332;9.404;2023-05-20T06:43:47;92536.22;;;10.67;74.78
65376;BME280;51976;47.332;9.404;2023-05-20T06:46:12;92536.44;;;10.70;74.63
65376;BME280;51976;47.332;9.404;2023-05-20T06:48:37;92537.63;;;10.64;74.77
65376;BME280;51976;47.332;9.404;2023-05-20T06:51:06;92527.28;;;10.71;74.55
65376;BME280;51976;47.332;9.404;2023-05-20T06:53:32;92542.13;;;10.69;74.00
65376;BME280;51976;47.332;9.404;2023-05-20T06:55:57;92533.97;;;10.74;73.85
65376;BME280;51976;47.332;9.404;2023-05-20T06:58:22;92535.13;;;10.68;74.12
65376;BME280;51976;47.332;9.404;2023-05-20T07:00:48;92538.44;;;10.65;74.72
65376;BME280;51976;47.332;9.404;2023-05-20T07:03:13;92541.28;;;10.73;74.21
65376;BME280;51976;47.332;9.404;2023-05-20T07:05:39;92538.28;;;10.75;74.22
65376;BME280;51976;47.332;9.404;2023-05-20T07:08:04;92531.75;;;10.81;74.50
65376;BME280;51976;47.332;9.404;2023-05-20T07:10:29;92537.00;;;10.91;74.28
65376;BME280;51976;47.332;9.404;2023-05-20T07:12:55;92530.28;;;10.89;74.33
65376;BME280;51976;47.332;9.404;2023-05-20T07:15:20;92517.06;;;10.68;74.03
65376;BME280;51976;47.332;9.404;2023-05-20T07:17:46;92530.19;;;10.56;75.02
65376;BME280;51976;47.332;9.404;2023-05-20T07:20:11;92524.28;;;10.73;74.55
65376;BME280;51976;47.332;9.404;2023-05-20T07:22:36;92506.56;;;10.67;74.53
65376;BME280;51976;47.332;9.404;2023-05-20T07:25:02;92523.88;;;10.84;74.29
65376;BME280;51976;47.332;9.404;2023-05-20T07:27:27;92494.41;;;10.50;74.98
65376;BME280;51976;47.332;9.404;2023-05-20T07:29:53;92513.09;;;10.66;74.50
65376;BME280;51976;47.332;9.404;2023-05-20T07:32:18;92523.66;;;10.81;74.40
65376;BME280;51976;47.332;9.404;2023-05-20T07:34:44;92492.50;;;10.70;74.16
65376;BME280;51976;47.332;9.404;2023-05-20T07:37:09;92511.94;;;10.91;73.95
65376;BME280;51976;47.332;9.404;2023-05-20T07:39:37;92506.16;;;10.78;74.35
65376;BME280;51976;47.332;9.404;2023-05-20T07:42:02;92521.34;;;10.93;74.23
65376;BME280;51976;47.332;9.404;2023-05-20T07:44:28;92520.88;;;11.05;74.06
65376;BME280;51976;47.332;9.404;2023-05-20T07:46:54;92512.41;;;11.11;74.13
65376;BME280;51976;47.332;9.404;2023-05-20T07:49:19;92521.59;;;11.10;74.32
65376;BME280;51976;47.332;9.404;2023-05-20T07:51:45;92509.22;;;11.09;74.10
65376;BME280;51976;47.332;9.404;2023-05-20T07:54:11;92511.53;;;11.16;74.40
65376;BME280;51976;47.332;9.404;2023-05-20T07:56:36;92507.91;;;11.07;74.57
65376;BME280;51976;47.332;9.404;2023-05-20T07:59:02;92491.78;;;11.21;73.99
65376;BME280;51976;47.332;9.404;2023-05-20T08:01:27;92507.16;;;11.20;74.39
65376;BME280;51976;47.332;9.404;2023-05-20T08:03:53;92514.84;;;11.45;73.97
65376;BME280;51976;47.332;9.404;2023-05-20T08:06:18;92512.44;;;11.44;73.72
65376;BME280;51976;47.332;9.404;2023-05-20T08:08:50;92509.84;;;11.52;73.57
65376;BME280;51976;47.332;9.404;2023-05-20T08:11:15;92511.06;;;11.60;73.85
65376;BME280;51976;47.332;9.404;2023-05-20T08:13:41;92505.69;;;11.60;73.39
65376;BME280;51976;47.332;9.404;2023-05-20T08:16:06;92496.63;;;11.70;72.85
65376;BME280;51976;47.332;9.404;2023-05-20T08:18:34;92513.78;;;11.93;72.52
65376;BME280;51976;47.332;9.404;2023-05-20T08:21:00;92483.16;;;11.83;72.51
65376;BME280;51976;47.332;9.404;2023-05-20T08:23:26;92513.19;;;11.96;72.73
65376;BME280;51976;47.332;9.404;2023-05-20T08:25:51;92501.28;;;11.97;72.74
65376;BME280;51976;47.332;9.404;2023-05-20T08:28:17;92512.34;;;11.81;73.24
65376;BME280;51976;47.332;9.404;2023-05-20T08:30:42;92516.91;;;12.00;72.65
65376;BME280;51976;47.332;9.404;2023-05-20T08:33:08;92512.59;;;12.12;72.61
65376;BME280;51976;47.332;9.404;2023-05-20T08:35:34;92515.78;;;12.14;72.29
65376;BME280;51976;47.332;9.404;2023-05-20T08:38:00;92496.00;;;12.19;71.82
65376;BME280;51976;47.332;9.404;2023-05-20T08:40:26;92514.41;;;12.44;71.32
65376;BME280;51976;47.332;9.404;2023-05-20T08:42:51;92501.28;;;12.51;71.37
65376;BME280;51976;47.332;9.404;2023-05-20T08:45:18;92511.78;;;12.67;71.02
65376;BME280;51976;47.332;9.404;2023-05-20T08:47:45;92501.94;;;12.71;70.57
65376;BME280;51976;47.332;9.404;2023-05-20T08:50:12;92507.97;;;12.68;70.84
65376;BME280;51976;47.332;9.404;2023-05-20T08:52:45;92488.72;;;12.69;70.52
65376;BME280;51976;47.332;9.404;2023-05-20T08:55:16;92503.41;;;12.91;70.21
65376;BME280;51976;47.332;9.404;2023-05-20T08:57:42;92481.72;;;12.68;70.29
65376;BME280;51976;47.332;9.404;2023-05-20T09:00:12;92497.94;;;12.82;70.40
65376;BME280;51976;47.332;9.404;2023-05-20T09:02:38;92502.16;;;12.61;70.92
65376;BME280;51976;47.332;9.404;2023-05-20T09:05:04;92494.84;;;12.75;70.70
65376;BME280;51976;47.332;9.404;2023-05-20T09:07:30;92488.03;;;12.77;70.69
65376;BME280;51976;47.332;9.404;2023-05-20T09:09:56;92496.97;;;13.00;70.13
65376;BME280;51976;47.332;9.404;2023-05-20T09:12:21;92489.94;;;12.77;70.55
65376;BME280;51976;47.332;9.404;2023-05-20T09:14:47;92500.13;;;12.80;70.53
65376;BME280;51976;47.332;9.404;2023-05-20T09:17:12;92505.25;;;12.81;70.66
65376;BME280;51976;47.332;9.404;2023-05-20T09:19:38;92489.13;;;12.63;71.15
65376;BME280;51976;47.332;9.404;2023-05-20T09:22:03;92491.31;;;12.74;71.13
65376;BME280;51976;47.332;9.404;2023-05-20T09:24:29;92501.28;;;13.01;70.34
65376;BME280;51976;47.332;9.404;2023-05-20T09:26:54;92485.72;;;12.84;70.71
65376;BME280;51976;47.332;9.404;2023-05-20T09:29:20;92484.50;;;12.77;70.93
65376;BME280;51976;47.332;9.404;2023-05-20T09:31:46;92497.94;;;12.82;71.25
65376;BME280;51976;47.332;9.404;2023-05-20T09:34:11;92502.00;;;12.93;71.30
65376;BME280;51976;47.332;9.404;2023-05-20T09:36:38;92491.81;;;12.76;71.84
65376;BME280;51976;47.332;9.404;2023-05-20T09:39:07;92498.19;;;12.94;71.89
65376;BME280;51976;47.332;9.404;2023-05-20T09:41:38;92491.78;;;12.90;71.91
65376;BME280;51976;47.332;9.404;2023-05-20T09:44:04;92499.91;;;12.90;71.71
65376;BME280;51976;47.332;9.404;2023-05-20T09:46:32;92486.97;;;12.87;71.38
65376;BME280;51976;47.332;9.404;2023-05-20T09:48:58;92494.94;;;12.83;71.88
65376;BME280;51976;47.332;9.404;2023-05-20T09:51:26;92485.03;;;13.01;71.13
65376;BME280;51976;47.332;9.404;2023-05-20T09:53:53;92496.91;;;13.14;71.01
65376;BME280;51976;47.332;9.404;2023-05-20T09:56:19;92491.41;;;13.19;70.73
65376;BME280;51976;47.332;9.404;2023-05-20T09:58:46;92475.09;;;13.10;70.69
65376;BME280;51976;47.332;9.404;2023-05-20T10:01:13;92483.00;;;13.20;70.66
65376;BME280;51976;47.332;9.404;2023-05-20T10:03:39;92470.94;;;13.27;70.71
65376;BME280;51976;47.332;9.404;2023-05-20T10:06:16;92474.91;;;13.07;71.96
65376;BME280;51976;47.332;9.404;2023-05-20T10:09:18;92478.38;;;13.21;71.37
65376;BME280;51976;47.332;9.404;2023-05-20T10:12:08;92478.31;;;13.12;71.87
65376;BME280;51976;47.332;9.404;2023-05-20T10:14:54;92472.78;;;13.17;72.57
65376;BME280;51976;47.332;9.404;2023-05-20T10:17:41;92463.56;;;13.18;71.92
65376;BME280;51976;47.332;9.404;2023-05-20T10:20:09;92483.78;;;13.43;70.95
65376;BME280;51976;47.332;9.404;2023-05-20T10:22:37;92481.28;;;13.47;70.73
65376;BME280;51976;47.332;9.404;2023-05-20T10:25:04;92470.94;;;13.49;70.31
65376;BME280;51976;47.332;9.404;2023-05-20T10:27:46;92481.50;;;13.81;69.65
65376;BME280;51976;47.332;9.404;2023-05-20T10:30:19;92466.09;;;13.68;70.06
65376;BME280;51976;47.332;9.404;2023-05-20T10:32:52;92479.63;;;13.91;70.03
65376;BME280;51976;47.332;9.404;2023-05-20T10:35:22;92481.25;;;13.92;70.00
65376;BME280;51976;47.332;9.404;2023-05-20T10:37:50;92483.22;;;14.08;69.48
65376;BME280;51976;47.332;9.404;2023-05-20T10:40:18;92478.97;;;14.24;68.91
65376;BME280;51976;47.332;9.404;2023-05-20T10:42:44;92479.69;;;14.39;68.51
65376;BME280;51976;47.332;9.404;2023-05-20T10:45:10;92481.03;;;14.59;68.02
65376;BME280;51976;47.332;9.404;2023-05-20T10:47:41;92470.94;;;14.50;68.26
65376;BME280;51976;47.332;9.404;2023-05-20T10:50:07;92455.50;;;14.60;67.96
65376;BME280;51976;47.332;9.404;2023-05-20T10:52:35;92466.25;;;14.90;66.91
65376;BME280;51976;47.332;9.404;2023-05-20T10:55:01;92470.88;;;14.90;66.80
65376;BME280;51976;47.332;9.404;2023-05-20T10:57:29;92469.09;;;14.68;67.93
65376;BME280;51976;47.332;9.404;2023-05-20T10:59:55;92464.75;;;14.59;68.29
65376;BME280;51976;47.332;9.404;2023-05-20T11:02:21;92445.09;;;14.44;67.70
65376;BME280;51976;47.332;9.404;2023-05-20T11:04:51;92461.94;;;14.89;66.85
65376;BME280;51976;47.332;9.404;2023-05-20T11:07:31;92456.03;;;14.96;66.22
65376;BME280;51976;47.332;9.404;2023-05-20T11:09:57;92466.44;;;15.29;65.81
65376;BME280;51976;47.332;9.404;2023-05-20T11:12:24;92460.66;;;15.47;65.25
65376;BME280;51976;47.332;9.404;2023-05-20T11:14:50;92463.53;;;15.42;65.45
65376;BME280;51976;47.332;9.404;2023-05-20T11:17:17;92462.75;;;15.24;65.53
65376;BME280;51976;47.332;9.404;2023-05-20T11:19:42;92443.91;;;15.02;65.63
65376;BME280;51976;47.332;9.404;2023-05-20T11:22:08;92456.66;;;15.45;65.52
65376;BME280;51976;47.332;9.404;2023-05-20T11:24:33;92462.41;;;15.52;65.16
65376;BME280;51976;47.332;9.404;2023-05-20T11:27:00;92455.69;;;15.75;64.17
65376;BME280;51976;47.332;9.404;2023-05-20T11:29:26;92448.34;;;15.84;63.56
65376;BME280;51976;47.332;9.404;2023-05-20T11:31:53;92453.84;;;16.05;64.66
65376;BME280;51976;47.332;9.404;2023-05-20T11:34:21;92456.66;;;15.79;64.19
65376;BME280;51976;47.332;9.404;2023-05-20T11:36:47;92449.56;;;15.96;64.31
65376;BME280;51976;47.332;9.404;2023-05-20T11:39:15;92453.44;;;15.86;64.53
65376;BME280;51976;47.332;9.404;2023-05-20T11:41:43;92448.84;;;16.16;63.69
65376;BME280;51976;47.332;9.404;2023-05-20T11:44:09;92446.31;;;16.11;63.91
65376;BME280;51976;47.332;9.404;2023-05-20T11:46:41;92429.22;;;16.10;64.14
65376;BME280;51976;47.332;9.404;2023-05-20T11:49:06;92432.59;;;16.07;64.49
65376;BME280;51976;47.332;9.404;2023-05-20T11:51:32;92431.81;;;15.89;64.82
65376;BME280;51976;47.332;9.404;2023-05-20T11:54:00;92431.66;;;15.95;64.39
65376;BME280;51976;47.332;9.404;2023-05-20T11:56:28;92438.09;;;15.81;64.89
65376;BME280;51976;47.332;9.404;2023-05-20T11:58:56;92439.38;;;16.22;64.94
65376;BME280;51976;47.332;9.404;2023-05-20T12:01:21;92435.25;;;16.16;64.46
65376;BME280;51976;47.332;9.404;2023-05-20T12:03:46;92425.41;;;16.03;64.01
65376;BME280;51976;47.332;9.404;2023-05-20T12:06:12;92432.34;;;16.21;63.87
65376;BME280;51976;47.332;9.404;2023-05-20T12:08:37;92419.34;;;15.97;64.75
65376;BME280;51976;47.332;9.404;2023-05-20T12:11:03;92421.41;;;16.00;65.35
65376;BME280;51976;47.332;9.404;2023-05-20T12:13:28;92433.25;;;15.96;64.79
65376;BME280;51976;47.332;9.404;2023-05-20T12:15:53;92425.41;;;16.41;63.38
65376;BME280;51976;47.332;9.404;2023-05-20T12:18:19;92420.84;;;16.15;64.48
65376;BME280;51976;47.332;9.404;2023-05-20T12:20:44;92428.63;;;15.96;64.30
65376;BME280;51976;47.332;9.404;2023-05-20T12:23:09;92426.38;;;15.98;64.83
65376;BME280;51976;47.332;9.404;2023-05-20T12:25:35;92427.16;;;15.99;64.62
65376;BME280;51976;47.332;9.404;2023-05-20T12:28:01;92429.69;;;16.12;64.17
65376;BME280;51976;47.332;9.404;2023-05-20T12:30:26;92418.81;;;16.12;64.44
65376;BME280;51976;47.332;9.404;2023-05-20T12:32:52;92414.69;;;15.98;64.84
65376;BME280;51976;47.332;9.404;2023-05-20T12:35:24;92427.03;;;16.33;64.14
65376;BME280;51976;47.332;9.404;2023-05-20T12:37:50;92419.44;;;16.77;63.27
65376;BME280;51976;47.332;9.404;2023-05-20T12:40:15;92412.13;;;16.69;63.50
65376;BME280;51976;47.332;9.404;2023-05-20T12:42:42;92419.03;;;16.66;63.40
65376;BME280;51976;47.332;9.404;2023-05-20T12:45:08;92408.16;;;16.87;62.94
65376;BME280;51976;47.332;9.404;2023-05-20T12:47:34;92398.13;;;16.79;62.61
65376;BME280;51976;47.332;9.404;2023-05-20T12:50:01;92396.00;;;16.64;62.92
65376;BME280;51976;47.332;9.404;2023-05-20T12:52:26;92403.50;;;16.67;63.33
65376;BME280;51976;47.332;9.404;2023-05-20T12:54:55;92406.00;;;16.42;63.47
65376;BME280;51976;47.332;9.404;2023-05-20T12:57:22;92401.69;;;16.41;64.27
65376;BME280;51976;47.332;9.404;2023-05-20T12:59:47;92397.09;;;16.63;63.37
65376;BME280;51976;47.332;9.404;2023-05-20T13:02:13;92388.22;;;16.74;63.10